Weather observations for the past three days for
McConnell Air Force Base
Imperial (Metric)
Date Time (cdt) Wind (mph) Vis. (mi.) Weather Sky Cond. Temperature (ºF) Relative Humidity Wind Chill (°F) Heat Index (°F) Pressure Precipitation (in)
Air Dwpt 6 hour altimeter (in) sea level (mb) 1 hr 3 hr 6 hr
Max. Min.
31 03:55 SW 9 10.00 Fair CLR 80.4 61.2 52% 81 29.92 1011.3
31 02:55 SW 12 10.00 Fair CLR 83.3 60.3 46% 84 29.91 1010.9
31 01:55 SW 12 10.00 Fair CLR 83.5 60.4 46% 84 29.92 1011.3
31 00:55 S 15 10.00 Fair CLR 86.5 59.9 100 86.4 41% 86 29.89 1010.2
30 23:55 S 16 10.00 Fair CLR 87.6 59.5 39% 87 29.87 1009.6
30 22:55 S 13 10.00 Fair CLR 88.7 59.7 38% 88 29.87 1009.6
30 21:55 S 17 10.00 Fair CLR 91.8 60.1 35% 91 29.87 1009.6
30 20:55 S 12 10.00 Fair CLR 93.9 58.6 31% 93 29.84 1008.6
30 19:55 S 15 10.00 Fair CLR 96.6 60.1 30% 97 29.83 1008.3
30 18:55 S 18 10.00 Fair CLR 100.2 61.2 105.8 99.9 28% 101 29.82 1007.9
30 17:55 S 22 G 25 10.00 Fair and Breezy CLR 103.1 61.5 26% 105 29.81 1007.5
30 16:55 SW 18 G 28 10.00 Fair CLR 104.5 61.5 25% 107 29.81 1007.5
30 15:55 SW 23 10.00 Fair and Breezy CLR 105.1 60.8 23% 107 29.82 1007.8
30 14:55 SW 26 G 31 10.00 Fair and Windy CLR 104.7 61.7 25% 107 29.84 1008.5
30 13:55 S 24 G 30 10.00 Fair and Breezy CLR 103.6 63 27% 106 29.85 1008.8
30 12:55 SW 26 G 33 10.00 Fair and Windy CLR 99.9 63.7 100 78.8 31% 102 29.87 1009.6
30 11:55 SW 25 G 30 10.00 Fair and Breezy CLR 96.8 64.6 35% 99 29.9 1010.6
30 10:55 SW 18 10.00 Fair CLR 92.5 63.9 39% 94 29.91 1011.0
30 09:55 SW 17 10.00 Fair CLR 88.7 63.3 43% 90 29.91 1011.0
30 08:55 SW 15 10.00 Fair CLR 83.5 62.8 50% 84 29.92 1011.4
30 07:55 S 14 10.00 Fair CLR 80.2 61 52% 81 29.92 1011.4
30 06:55 S 15 10.00 Fair CLR 79 60.3 85.5 78.3 53% 80 29.91 1011.0
30 05:55 S 13 10.00 Fair CLR 79 60.3 53% 80 29.91 1011.0
30 04:55 S 10 10.00 Fair CLR 79 60.3 53% 80 29.91 1011.0
30 03:55 S 10 10.00 Fair CLR 81.5 60.4 49% 82 29.9 1010.6
30 02:55 S 10 10.00 Fair CLR 82.6 60.3 47% 83 29.9 1010.6
30 01:55 S 15 10.00 Fair CLR 84.4 60.1 44% 84 29.9 1010.6
30 00:55 S 15 10.00 Fair CLR 85.1 60.6 98.1 85.1 44% 85 29.9 1010.7
29 23:55 S 15 10.00 Fair CLR 86.4 60.4 42% 86 29.9 1010.7
29 22:55 S 18 10.00 Fair CLR 88.3 60.3 39% 88 29.9 1010.7
29 21:55 S 14 10.00 Fair CLR 89.2 58.8 36% 88 29.89 1010.4
29 20:55 S 14 10.00 Fair CLR 91.4 58.1 33% 90 29.87 1009.7
29 18:55 S 20 G 25 10.00 Fair CLR 98.2 58.5 102.9 93 27% 98 29.85 1009.0
29 17:55 S 23 G 30 10.00 Fair and Breezy CLR 101.3 56.5 23% 100 29.85 1009.0
29 16:55 S 22 10.00 Fair and Breezy CLR 102.4 58.6 24% 102 29.86 1009.3
29 15:55 S 21 10.00 Fair and Breezy CLR 102.2 58.5 24% 102 29.89 1010.3
29 14:55 S 20 G 26 10.00 Fair CLR 101.3 61 27% 102 29.91 1011.0
29 13:55 SW 21 G 26 10.00 Fair and Breezy CLR 100 61 28% 101 29.94 1012.0
29 12:55 S 17 10.00 A Few Clouds FEW160 94.5 63.3 94.5 73 36% 96 29.97 1013.1
29 11:55 S 17 10.00 Partly Cloudy FEW160 SCT190 SCT210 91.9 62.6 38% 93 29.99 1013.8
29 10:55 S 16 10.00 Fair CLR 86.5 62.1 44% 87 30 1014.2
29 09:55 S 15 G 20 10.00 A Few Clouds FEW180 83.3 61 47% 84 30.01 1014.6
29 08:55 S 13 10.00 Fair CLR 79.2 58.8 50% 80 30.02 1015.0
29 07:55 S 12 10.00 Fair CLR 76.1 56.7 51% 78 30.02 1014.9
29 06:55 S 8 10.00 Fair CLR 72.9 55.8 79 72.7 55% 30.01 1014.6
29 05:55 S 7 10.00 Fair CLR 73.2 55 53% 30.02 1014.9
29 04:55 S 7 10.00 Fair CLR 73 54.3 52% 30.02 1014.9
29 03:55 S 8 10.00 Fair CLR 73.2 54 51% 30.02 1014.9
29 02:55 S 8 10.00 Fair CLR 76.1 52.5 44% 78 30.01 1014.5
29 01:55 S 8 10.00 Fair CLR 77.4 52.5 42% 78 30.01 1014.6
29 00:55 S 9 10.00 Fair CLR 79 52.5 94.3 78.8 40% 79 30.02 1014.9
28 23:55 S 10 10.00 Fair CLR 81 52.9 38% 80 30.02 1014.9
28 22:55 S 13 10.00 Fair CLR 83.7 53.8 36% 82 30.02 1015.0
28 21:55 S 8 10.00 Fair CLR 84.7 54.9 36% 83 30.01 1014.8
28 20:55 S 8 10.00 Fair CLR 85.6 54.9 35% 84 30 1014.6
28 19:55 S 8 10.00 Fair CLR 90.3 52.7 28% 88 29.99 1014.1
28 18:55 S 10 10.00 Fair CLR 94.5 49.6 96.8 89.4 22% 91 30 1014.2
28 17:55 S 12 10.00 Fair CLR 95.7 52 23% 93 30 1014.2
28 16:55 SW 10 10.00 Fair CLR 96.1 52.2 23% 93 30.01 1014.6
28 15:55 S 9 10.00 Fair CLR 95.5 57.2 28% 94 30.04 1015.7
28 14:55 SW 8 10.00 Fair CLR 94.6 58.3 30% 94 30.07 1016.8
28 13:55 SW 10 G 17 10.00 Fair CLR 92.5 59.2 33% 92 30.09 1017.4
28 12:55 S 13 10.00 Fair CLR 89.4 58.8 89.6 71.2 36% 89 30.11 1018.1
28 11:55 S 9 10.00 Fair CLR 86 60.3 42% 86 30.13 1018.9
28 10:55 E 10 10.00 A Few Clouds FEW100 82.4 61.9 50% 83 30.14 1019.3
28 09:55 SE 9 10.00 Fair CLR 77.9 61 56% 79 30.14 1019.3
28 08:55 SE 6 10.00 Fair CLR 73.2 59.9 63% 30.12 1018.7
28 07:55 S 15 10.00 Overcast OVC110 72.1 59.7 65% 30.1 1017.9
28 06:55 Calm 10.00 Mostly Cloudy BKN130 72 58.6 73.8 70.3 63% 30.12 1018.5
28 05:55 NW 9 10.00 Fair CLR 71.8 58.1 62% 30.13 1018.8
Date Time (cdt) Wind (mph) Vis. (mi.) Weather Sky Cond. Air Dwpt Max. Min. Relative Humidity Wind Chill (°F) Heat Index (°F) altimeter (in) sea level (mb) 1 hr 3 hr 6 hr
6 hour
Temperature (ºF) Pressure Precipitation (in)